sensor_id;sensor_type;location;lat;lon;timestamp;pressure;altitude;pressure_sealevel;temperature;humidity
7832;BME280;3961;42.058;25.586;2023-04-21T00:00:59;63749.13;;;13.59;100.00
7832;BME280;3961;42.058;25.586;2023-04-21T00:03:26;63748.28;;;13.56;100.00
7832;BME280;3961;42.058;25.586;2023-04-21T00:05:52;63729.97;;;13.42;100.00
7832;BME280;3961;42.058;25.586;2023-04-21T00:08:20;63729.06;;;13.44;100.00
7832;BME280;3961;42.058;25.586;2023-04-21T00:10:46;63708.91;;;13.22;100.00
7832;BME280;3961;42.058;25.586;2023-04-21T00:13:12;63675.19;;;12.97;100.00
7832;BME280;3961;42.058;25.586;2023-04-21T00:15:38;63710.06;;;13.23;100.00
7832;BME280;3961;42.058;25.586;2023-04-21T00:18:04;63695.22;;;13.12;100.00
7832;BME280;3961;42.058;25.586;2023-04-21T00:20:30;63722.44;;;13.36;100.00
7832;BME280;3961;42.058;25.586;2023-04-21T00:22:56;63694.03;;;13.11;100.00
7832;BME280;3961;42.058;25.586;2023-04-21T00:25:23;63692.66;;;13.07;100.00
7832;BME280;3961;42.058;25.586;2023-04-21T00:27:48;63699.59;;;13.13;100.00
7832;BME280;3961;42.058;25.586;2023-04-21T00:30:14;63710.53;;;13.28;100.00
7832;BME280;3961;42.058;25.586;2023-04-21T00:32:40;63680.50;;;12.97;100.00
7832;BME280;3961;42.058;25.586;2023-04-21T00:35:05;63680.84;;;12.95;100.00
7832;BME280;3961;42.058;25.586;2023-04-21T00:37:31;63698.44;;;13.12;100.00
7832;BME280;3961;42.058;25.586;2023-04-21T00:39:56;63696.47;;;13.08;100.00
7832;BME280;3961;42.058;25.586;2023-04-21T00:42:23;63679.94;;;12.96;100.00
7832;BME280;3961;42.058;25.586;2023-04-21T00:44:49;63673.56;;;12.91;100.00
7832;BME280;3961;42.058;25.586;2023-04-21T00:47:14;63664.28;;;12.83;100.00
7832;BME280;3961;42.058;25.586;2023-04-21T00:49:40;63646.91;;;12.67;100.00
7832;BME280;3961;42.058;25.586;2023-04-21T00:52:06;63647.13;;;12.70;100.00
7832;BME280;3961;42.058;25.586;2023-04-21T00:54:34;63669.84;;;12.85;100.00
7832;BME280;3961;42.058;25.586;2023-04-21T00:57:00;63656.19;;;12.75;100.00
7832;BME280;3961;42.058;25.586;2023-04-21T00:59:29;63656.66;;;12.81;100.00
7832;BME280;3961;42.058;25.586;2023-04-21T01:01:55;63614.50;;;12.39;100.00
7832;BME280;3961;42.058;25.586;2023-04-21T01:04:20;63633.84;;;12.58;100.00
7832;BME280;3961;42.058;25.586;2023-04-21T01:06:46;63651.78;;;12.74;100.00
7832;BME280;3961;42.058;25.586;2023-04-21T01:09:12;63657.34;;;12.76;100.00
7832;BME280;3961;42.058;25.586;2023-04-21T01:11:37;63639.06;;;12.63;100.00
7832;BME280;3961;42.058;25.586;2023-04-21T01:14:03;63620.28;;;12.44;100.00
7832;BME280;3961;42.058;25.586;2023-04-21T01:16:30;63631.06;;;12.51;100.00
7832;BME280;3961;42.058;25.586;2023-04-21T01:18:58;63588.59;;;12.23;100.00
7832;BME280;3961;42.058;25.586;2023-04-21T01:21:24;63605.50;;;12.33;100.00
7832;BME280;3961;42.058;25.586;2023-04-21T01:23:51;63615.88;;;12.42;100.00
7832;BME280;3961;42.058;25.586;2023-04-21T01:26:19;63619.47;;;12.41;100.00
7832;BME280;3961;42.058;25.586;2023-04-21T01:28:46;63588.13;;;12.18;100.00
7832;BME280;3961;42.058;25.586;2023-04-21T01:31:15;63618.22;;;12.44;100.00
7832;BME280;3961;42.058;25.586;2023-04-21T01:33:41;63602.03;;;12.30;100.00
7832;BME280;3961;42.058;25.586;2023-04-21T01:36:08;63601.78;;;12.28;100.00
7832;BME280;3961;42.058;25.586;2023-04-21T01:38:37;63576.88;;;12.06;100.00
7832;BME280;3961;42.058;25.586;2023-04-21T01:41:03;63591.38;;;12.19;100.00
7832;BME280;3961;42.058;25.586;2023-04-21T01:43:29;63565.00;;;11.98;100.00
7832;BME280;3961;42.058;25.586;2023-04-21T01:45:54;63577.38;;;12.11;100.00
7832;BME280;3961;42.058;25.586;2023-04-21T01:48:20;63607.56;;;12.33;100.00
7832;BME280;3961;42.058;25.586;2023-04-21T01:50:45;63605.69;;;12.36;100.00
7832;BME280;3961;42.058;25.586;2023-04-21T01:53:11;63614.50;;;12.39;100.00
7832;BME280;3961;42.058;25.586;2023-04-21T01:55:36;63591.38;;;12.19;100.00
7832;BME280;3961;42.058;25.586;2023-04-21T01:58:02;63535.25;;;11.69;100.00
7832;BME280;3961;42.058;25.586;2023-04-21T02:00:28;63555.16;;;11.89;100.00
7832;BME280;3961;42.058;25.586;2023-04-21T02:02:54;63537.53;;;11.71;100.00
7832;BME280;3961;42.058;25.586;2023-04-21T02:05:19;63532.34;;;11.67;100.00
7832;BME280;3961;42.058;25.586;2023-04-21T02:07:45;63530.28;;;11.67;100.00
7832;BME280;3961;42.058;25.586;2023-04-21T02:10:11;63537.78;;;11.74;100.00
7832;BME280;3961;42.058;25.586;2023-04-21T02:12:37;63552.03;;;11.84;100.00
7832;BME280;3961;42.058;25.586;2023-04-21T02:15:03;63546.47;;;11.82;100.00
7832;BME280;3961;42.058;25.586;2023-04-21T02:17:29;63532.00;;;11.69;100.00
7832;BME280;3961;42.058;25.586;2023-04-21T02:19:56;63556.66;;;11.88;100.00
7832;BME280;3961;42.058;25.586;2023-04-21T02:22:22;63527.38;;;11.65;100.00
7832;BME280;3961;42.058;25.586;2023-04-21T02:24:48;63475.69;;;11.17;100.00
7832;BME280;3961;42.058;25.586;2023-04-21T02:27:13;63500.19;;;11.41;100.00
7832;BME280;3961;42.058;25.586;2023-04-21T02:29:39;63502.50;;;11.43;100.00
7832;BME280;3961;42.058;25.586;2023-04-21T02:32:05;63515.56;;;11.52;100.00
7832;BME280;3961;42.058;25.586;2023-04-21T02:34:30;63497.09;;;11.36;100.00
7832;BME280;3961;42.058;25.586;2023-04-21T02:36:55;63482.53;;;11.28;100.00
7832;BME280;3961;42.058;25.586;2023-04-21T02:39:22;63486.34;;;11.29;100.00
7832;BME280;3961;42.058;25.586;2023-04-21T02:41:48;63476.75;;;11.23;100.00
7832;BME280;3961;42.058;25.586;2023-04-21T02:44:13;63458.25;;;11.06;100.00
7832;BME280;3961;42.058;25.586;2023-04-21T02:46:39;63472.69;;;11.19;100.00
7832;BME280;3961;42.058;25.586;2023-04-21T02:49:05;63505.16;;;11.43;100.00
7832;BME280;3961;42.058;25.586;2023-04-21T02:51:31;63469.56;;;11.14;100.00
7832;BME280;3961;42.058;25.586;2023-04-21T02:53:56;63515.22;;;11.54;100.00
7832;BME280;3961;42.058;25.586;2023-04-21T02:56:22;63514.66;;;11.54;100.00
7832;BME280;3961;42.058;25.586;2023-04-21T02:58:48;63522.19;;;11.60;100.00
7832;BME280;3961;42.058;25.586;2023-04-21T03:01:13;63522.53;;;11.58;100.00
7832;BME280;3961;42.058;25.586;2023-04-21T03:03:39;63513.72;;;11.55;100.00
7832;BME280;3961;42.058;25.586;2023-04-21T03:06:04;63513.50;;;11.53;100.00
7832;BME280;3961;42.058;25.586;2023-04-21T03:08:30;63539.28;;;11.73;100.00
7832;BME280;3961;42.058;25.586;2023-04-21T03:10:56;63510.25;;;11.52;100.00
7832;BME280;3961;42.058;25.586;2023-04-21T03:13:22;63478.72;;;11.27;100.00
7832;BME280;3961;42.058;25.586;2023-04-21T03:15:49;63490.03;;;11.34;100.00
7832;BME280;3961;42.058;25.586;2023-04-21T03:18:15;63477.44;;;11.19;100.00
7832;BME280;3961;42.058;25.586;2023-04-21T03:20:40;63467.50;;;11.15;100.00
7832;BME280;3961;42.058;25.586;2023-04-21T03:23:06;63476.50;;;11.20;100.00
7832;BME280;3961;42.058;25.586;2023-04-21T03:25:32;63402.56;;;10.55;100.00
7832;BME280;3961;42.058;25.586;2023-04-21T03:27:57;63437.13;;;10.90;100.00
7832;BME280;3961;42.058;25.586;2023-04-21T03:30:23;63432.81;;;10.84;100.00
7832;BME280;3961;42.058;25.586;2023-04-21T03:32:50;63442.66;;;10.93;100.00
7832;BME280;3961;42.058;25.586;2023-04-21T03:35:16;63437.22;;;10.86;100.00
7832;BME280;3961;42.058;25.586;2023-04-21T03:37:42;63445.88;;;10.93;100.00
7832;BME280;3961;42.058;25.586;2023-04-21T03:40:07;63441.84;;;10.90;100.00
7832;BME280;3961;42.058;25.586;2023-04-21T03:42:34;63445.31;;;10.93;100.00
7832;BME280;3961;42.058;25.586;2023-04-21T03:45:03;63432.00;;;10.81;100.00
7832;BME280;3961;42.058;25.586;2023-04-21T03:47:30;63455.13;;;11.01;100.00
7832;BME280;3961;42.058;25.586;2023-04-21T03:49:55;63474.53;;;11.16;100.00
7832;BME280;3961;42.058;25.586;2023-04-21T03:52:21;63415.63;;;10.64;100.00
7832;BME280;3961;42.058;25.586;2023-04-21T03:54:46;63467.59;;;11.10;100.00
7832;BME280;3961;42.058;25.586;2023-04-21T03:57:13;63473.03;;;11.17;100.00
7832;BME280;3961;42.058;25.586;2023-04-21T03:59:39;63448.19;;;10.95;100.00
7832;BME280;3961;42.058;25.586;2023-04-21T04:02:05;63441.59;;;10.87;100.00
7832;BME280;3961;42.058;25.586;2023-04-21T04:04:31;63445.66;;;10.91;100.00
7832;BME280;3961;42.058;25.586;2023-04-21T04:06:56;63453.41;;;11.00;100.00
7832;BME280;3961;42.058;25.586;2023-04-21T04:09:22;63495.00;;;11.36;100.00
7832;BME280;3961;42.058;25.586;2023-04-21T04:11:48;63601.19;;;12.27;100.00
7832;BME280;3961;42.058;25.586;2023-04-21T04:14:13;63683.63;;;13.02;100.00
7832;BME280;3961;42.058;25.586;2023-04-21T04:16:39;63631.41;;;12.61;100.00
7832;BME280;3961;42.058;25.586;2023-04-21T04:19:05;63525.41;;;11.61;100.00
7832;BME280;3961;42.058;25.586;2023-04-21T04:21:31;63491.53;;;11.33;100.00
7832;BME280;3961;42.058;25.586;2023-04-21T04:23:57;63483.09;;;11.28;100.00
7832;BME280;3961;42.058;25.586;2023-04-21T04:26:23;63471.66;;;11.14;100.00
7832;BME280;3961;42.058;25.586;2023-04-21T04:28:53;63430.28;;;10.80;100.00
7832;BME280;3961;42.058;25.586;2023-04-21T04:31:21;63428.53;;;10.78;100.00
7832;BME280;3961;42.058;25.586;2023-04-21T04:33:50;63412.97;;;10.64;100.00
7832;BME280;3961;42.058;25.586;2023-04-21T04:36:15;63445.06;;;10.90;100.00
7832;BME280;3961;42.058;25.586;2023-04-21T04:38:41;63402.22;;;10.57;100.00
7832;BME280;3961;42.058;25.586;2023-04-21T04:41:06;63414.13;;;10.65;100.00
7832;BME280;3961;42.058;25.586;2023-04-21T04:43:33;63430.03;;;10.77;100.00
7832;BME280;3961;42.058;25.586;2023-04-21T04:46:02;63414.94;;;10.68;100.00
7832;BME280;3961;42.058;25.586;2023-04-21T04:48:27;63403.38;;;10.58;100.00
7832;BME280;3961;42.058;25.586;2023-04-21T04:50:53;63425.41;;;10.73;100.00
7832;BME280;3961;42.058;25.586;2023-04-21T04:53:18;63428.78;;;10.81;100.00
7832;BME280;3961;42.058;25.586;2023-04-21T04:55:44;63414.34;;;10.68;100.00
7832;BME280;3961;42.058;25.586;2023-04-21T04:58:10;63417.81;;;10.71;100.00
7832;BME280;3961;42.058;25.586;2023-04-21T05:00:35;63431.78;;;10.78;100.00
7832;BME280;3961;42.058;25.586;2023-04-21T05:03:01;63439.19;;;10.90;100.00
7832;BME280;3961;42.058;25.586;2023-04-21T05:05:27;63448.19;;;10.95;100.00
7832;BME280;3961;42.058;25.586;2023-04-21T05:07:52;63486.56;;;11.31;100.00
7832;BME280;3961;42.058;25.586;2023-04-21T05:10:18;63494.19;;;11.33;100.00
7832;BME280;3961;42.058;25.586;2023-04-21T05:12:43;63489.91;;;11.27;100.00
7832;BME280;3961;42.058;25.586;2023-04-21T05:15:09;63501.13;;;11.39;100.00
7832;BME280;3961;42.058;25.586;2023-04-21T05:17:35;63516.38;;;11.55;100.00
7832;BME280;3961;42.058;25.586;2023-04-21T05:20:02;63536.38;;;11.70;100.00
7832;BME280;3961;42.058;25.586;2023-04-21T05:22:28;63518.69;;;11.57;100.00
7832;BME280;3961;42.058;25.586;2023-04-21T05:24:53;63501.69;;;11.40;100.00
7832;BME280;3961;42.058;25.586;2023-04-21T05:27:19;63519.28;;;11.58;100.00
7832;BME280;3961;42.058;25.586;2023-04-21T05:29:45;63525.41;;;11.61;100.00
7832;BME280;3961;42.058;25.586;2023-04-21T05:32:10;63498.25;;;11.37;100.00
7832;BME280;3961;42.058;25.586;2023-04-21T05:34:37;63576.19;;;12.10;100.00
7832;BME280;3961;42.058;25.586;2023-04-21T05:37:02;63575.38;;;12.07;100.00
7832;BME280;3961;42.058;25.586;2023-04-21T05:39:29;63592.75;;;12.22;100.00
7832;BME280;3961;42.058;25.586;2023-04-21T05:41:54;63635.94;;;12.58;100.00
7832;BME280;3961;42.058;25.586;2023-04-21T05:44:20;63671.81;;;12.89;100.00
7832;BME280;3961;42.058;25.586;2023-04-21T05:46:45;63711.44;;;13.26;100.00
7832;BME280;3961;42.058;25.586;2023-04-21T05:49:11;63724.19;;;13.37;100.00
7832;BME280;3961;42.058;25.586;2023-04-21T05:51:36;63700.19;;;13.14;100.00
7832;BME280;3961;42.058;25.586;2023-04-21T05:54:02;63733.22;;;13.43;100.00
7832;BME280;3961;42.058;25.586;2023-04-21T05:56:27;63725.47;;;13.34;100.00
7832;BME280;3961;42.058;25.586;2023-04-21T05:58:53;63774.72;;;13.77;100.00
7832;BME280;3961;42.058;25.586;2023-04-21T06:01:18;63803.34;;;14.04;100.00
7832;BME280;3961;42.058;25.586;2023-04-21T06:03:44;63812.28;;;14.15;100.00
7832;BME280;3961;42.058;25.586;2023-04-21T06:06:09;63841.72;;;14.33;100.00
7832;BME280;3961;42.058;25.586;2023-04-21T06:08:36;63878.19;;;14.70;100.00
7832;BME280;3961;42.058;25.586;2023-04-21T06:11:01;63855.81;;;14.53;100.00
7832;BME280;3961;42.058;25.586;2023-04-21T06:13:27;63970.25;;;15.48;100.00
7832;BME280;3961;42.058;25.586;2023-04-21T06:15:53;64080.19;;;16.51;100.00
7832;BME280;3961;42.058;25.586;2023-04-21T06:18:19;64141.03;;;17.02;100.00
7832;BME280;3961;42.058;25.586;2023-04-21T06:21:03;64070.66;;;16.40;100.00
7832;BME280;3961;42.058;25.586;2023-04-21T06:23:29;63987.91;;;15.66;100.00
7832;BME280;3961;42.058;25.586;2023-04-21T06:26:05;63996.63;;;15.73;100.00
7832;BME280;3961;42.058;25.586;2023-04-21T06:28:32;63972.81;;;15.53;100.00
7832;BME280;3961;42.058;25.586;2023-04-21T06:30:59;63951.78;;;15.39;100.00
7832;BME280;3961;42.058;25.586;2023-04-21T06:33:26;63959.44;;;15.41;100.00
7832;BME280;3961;42.058;25.586;2023-04-21T06:35:52;63955.38;;;15.37;100.00
7832;BME280;3961;42.058;25.586;2023-04-21T06:38:18;63984.19;;;15.60;100.00
7832;BME280;3961;42.058;25.586;2023-04-21T06:40:43;63990.25;;;15.68;100.00
7832;BME280;3961;42.058;25.586;2023-04-21T06:43:09;63990.47;;;15.70;100.00
7832;BME280;3961;42.058;25.586;2023-04-21T06:45:34;63953.41;;;15.33;100.00
7832;BME280;3961;42.058;25.586;2023-04-21T06:48:00;63987.56;;;15.68;100.00
7832;BME280;3961;42.058;25.586;2023-04-21T06:50:25;63964.09;;;15.45;100.00
7832;BME280;3961;42.058;25.586;2023-04-21T06:52:51;63989.88;;;15.70;100.00
7832;BME280;3961;42.058;25.586;2023-04-21T06:55:16;64005.34;;;15.81;100.00
7832;BME280;3961;42.058;25.586;2023-04-21T06:57:42;64001.28;;;15.77;100.00
7832;BME280;3961;42.058;25.586;2023-04-21T07:00:08;64065.78;;;16.34;100.00
7832;BME280;3961;42.058;25.586;2023-04-21T07:02:33;64091.94;;;16.57;100.00
7832;BME280;3961;42.058;25.586;2023-04-21T07:04:59;64068.09;;;16.36;100.00
7832;BME280;3961;42.058;25.586;2023-04-21T07:07:24;64089.97;;;16.53;100.00
7832;BME280;3961;42.058;25.586;2023-04-21T07:09:50;64125.44;;;16.84;100.00
7832;BME280;3961;42.058;25.586;2023-04-21T07:12:15;64157.66;;;17.14;100.00
7832;BME280;3961;42.058;25.586;2023-04-21T07:14:41;64187.91;;;17.40;100.00
7832;BME280;3961;42.058;25.586;2023-04-21T07:17:07;64185.00;;;17.38;100.00
7832;BME280;3961;42.058;25.586;2023-04-21T07:19:32;64210.03;;;17.60;100.00
7832;BME280;3961;42.058;25.586;2023-04-21T07:21:58;64254.06;;;17.96;100.00
7832;BME280;3961;42.058;25.586;2023-04-21T07:24:24;64285.72;;;18.26;100.00
7832;BME280;3961;42.058;25.586;2023-04-21T07:26:49;64305.31;;;18.40;100.00
7832;BME280;3961;42.058;25.586;2023-04-21T07:29:15;64309.03;;;18.46;100.00
7832;BME280;3961;42.058;25.586;2023-04-21T07:31:40;64477.31;;;19.90;97.81
7832;BME280;3961;42.058;25.586;2023-04-21T07:34:06;64542.94;;;20.50;96.00
7832;BME280;3961;42.058;25.586;2023-04-21T07:36:31;64602.28;;;20.99;93.08
7832;BME280;3961;42.058;25.586;2023-04-21T07:38:57;64593.88;;;20.89;90.48
7832;BME280;3961;42.058;25.586;2023-04-21T07:41:22;64623.53;;;21.20;90.34
7832;BME280;3961;42.058;25.586;2023-04-21T07:43:48;64655.25;;;21.42;88.60
7832;BME280;3961;42.058;25.586;2023-04-21T07:46:13;64638.88;;;21.28;87.62
7832;BME280;3961;42.058;25.586;2023-04-21T07:48:39;64660.72;;;21.50;88.50
7832;BME280;3961;42.058;25.586;2023-04-21T07:51:05;64674.75;;;21.62;86.20
7832;BME280;3961;42.058;25.586;2023-04-21T07:53:31;64672.88;;;21.65;88.17
7832;BME280;3961;42.058;25.586;2023-04-21T07:55:57;64672.63;;;21.62;87.27
7832;BME280;3961;42.058;25.586;2023-04-21T07:58:22;64674.75;;;21.62;87.38
7832;BME280;3961;42.058;25.586;2023-04-21T08:00:48;64702.22;;;21.86;87.30
7832;BME280;3961;42.058;25.586;2023-04-21T08:03:14;64627.41;;;21.21;84.44
7832;BME280;3961;42.058;25.586;2023-04-21T08:05:39;64676.72;;;21.66;85.67
7832;BME280;3961;42.058;25.586;2023-04-21T08:08:05;64561.03;;;20.65;83.69
7832;BME280;3961;42.058;25.586;2023-04-21T08:10:31;64621.78;;;21.18;86.61
7832;BME280;3961;42.058;25.586;2023-04-21T08:12:57;64639.56;;;21.36;86.86
7832;BME280;3961;42.058;25.586;2023-04-21T08:15:23;64673.00;;;21.60;86.10
7832;BME280;3961;42.058;25.586;2023-04-21T08:17:48;64645.19;;;21.38;82.08
7832;BME280;3961;42.058;25.586;2023-04-21T08:20:14;64599.94;;;20.97;82.03
7832;BME280;3961;42.058;25.586;2023-04-21T08:22:40;64594.91;;;20.95;83.18
7832;BME280;3961;42.058;25.586;2023-04-21T08:25:05;64607.78;;;21.06;82.86
7832;BME280;3961;42.058;25.586;2023-04-21T08:27:31;64622.13;;;21.16;82.19
7832;BME280;3961;42.058;25.586;2023-04-21T08:29:57;64632.91;;;21.28;82.38
7832;BME280;3961;42.058;25.586;2023-04-21T08:32:22;64632.09;;;21.25;84.17
7832;BME280;3961;42.058;25.586;2023-04-21T08:34:52;64655.09;;;21.47;81.20
7832;BME280;3961;42.058;25.586;2023-04-21T08:37:19;64613.38;;;21.08;82.37
7832;BME280;3961;42.058;25.586;2023-04-21T08:39:46;64631.16;;;21.26;81.93
7832;BME280;3961;42.058;25.586;2023-04-21T08:42:18;64682.59;;;21.71;81.56
7832;BME280;3961;42.058;25.586;2023-04-21T08:44:44;64682.72;;;21.66;80.22
7832;BME280;3961;42.058;25.586;2023-04-21T08:47:11;64673.00;;;21.60;81.01
7832;BME280;3961;42.058;25.586;2023-04-21T08:49:38;64706.53;;;21.92;80.44
7832;BME280;3961;42.058;25.586;2023-04-21T08:52:04;64717.09;;;22.01;81.30
7832;BME280;3961;42.058;25.586;2023-04-21T08:54:31;64750.78;;;22.28;80.70
7832;BME280;3961;42.058;25.586;2023-04-21T08:56:56;64720.38;;;22.01;77.10
7832;BME280;3961;42.058;25.586;2023-04-21T08:59:22;64710.63;;;21.95;76.87
7832;BME280;3961;42.058;25.586;2023-04-21T09:04:33;64743.97;;;22.24;75.34
7832;BME280;3961;42.058;25.586;2023-04-21T09:06:58;64800.16;;;22.73;73.96
7832;BME280;3961;42.058;25.586;2023-04-21T09:09:23;64800.50;;;22.71;70.97
7832;BME280;3961;42.058;25.586;2023-04-21T09:11:56;64772.06;;;22.49;72.65
7832;BME280;3961;42.058;25.586;2023-04-21T09:14:30;64799.56;;;22.72;69.06
7832;BME280;3961;42.058;25.586;2023-04-21T09:17:03;64840.53;;;23.08;71.68
7832;BME280;3961;42.058;25.586;2023-04-21T09:19:29;64815.97;;;22.87;68.96
7832;BME280;3961;42.058;25.586;2023-04-21T09:21:59;64841.50;;;23.06;69.26
7832;BME280;3961;42.058;25.586;2023-04-21T09:24:24;64807.75;;;22.79;68.83
7832;BME280;3961;42.058;25.586;2023-04-21T09:26:50;64816.31;;;22.85;65.51
7832;BME280;3961;42.058;25.586;2023-04-21T09:29:16;64807.41;;;22.82;65.28
7832;BME280;3961;42.058;25.586;2023-04-21T09:31:43;64811.63;;;22.81;68.05
7832;BME280;3961;42.058;25.586;2023-04-21T09:36:44;64872.53;;;23.33;68.29
7832;BME280;3961;42.058;25.586;2023-04-21T09:39:10;64845.81;;;23.12;66.19
7832;BME280;3961;42.058;25.586;2023-04-21T09:41:36;64900.66;;;23.58;66.56
7832;BME280;3961;42.058;25.586;2023-04-21T09:44:01;64879.94;;;23.37;65.85
7832;BME280;3961;42.058;25.586;2023-04-21T09:46:33;64908.28;;;23.64;67.45
7832;BME280;3961;42.058;25.586;2023-04-21T09:49:00;64892.09;;;23.53;63.44
7832;BME280;3961;42.058;25.586;2023-04-21T09:51:26;64906.88;;;23.61;65.47
7832;BME280;3961;42.058;25.586;2023-04-21T09:53:58;64863.16;;;23.25;64.03
7832;BME280;3961;42.058;25.586;2023-04-21T09:56:24;64873.94;;;23.37;62.64
7832;BME280;3961;42.058;25.586;2023-04-21T09:58:54;64830.38;;;22.97;61.55
7832;BME280;3961;42.058;25.586;2023-04-21T10:01:23;64744.94;;;22.23;65.48
7832;BME280;3961;42.058;25.586;2023-04-21T10:03:50;64829.44;;;22.98;69.13
7832;BME280;3961;42.058;25.586;2023-04-21T10:06:18;64821.81;;;22.92;65.75
7832;BME280;3961;42.058;25.586;2023-04-21T10:08:44;64829.44;;;22.98;64.58
7832;BME280;3961;42.058;25.586;2023-04-21T10:11:11;64831.34;;;22.95;65.23
7832;BME280;3961;42.058;25.586;2023-04-21T10:13:38;64856.56;;;23.24;61.38
7832;BME280;3961;42.058;25.586;2023-04-21T10:16:07;64880.50;;;23.38;63.22
7832;BME280;3961;42.058;25.586;2023-04-21T10:18:50;64906.50;;;23.63;64.98
7832;BME280;3961;42.058;25.586;2023-04-21T10:21:18;64931.09;;;23.84;58.64
7832;BME280;3961;42.058;25.586;2023-04-21T10:23:50;64918.81;;;23.73;59.68
7832;BME280;3961;42.058;25.586;2023-04-21T10:26:25;64874.88;;;23.35;56.31
7832;BME280;3961;42.058;25.586;2023-04-21T10:36:34;64935.78;;;23.88;53.92
7832;BME280;3961;42.058;25.586;2023-04-21T10:39:01;64900.06;;;23.57;53.87
7832;BME280;3961;42.058;25.586;2023-04-21T10:41:32;64895.59;;;23.56;47.72
7832;BME280;3961;42.058;25.586;2023-04-21T10:43:59;64774.63;;;22.53;47.88
7832;BME280;3961;42.058;25.586;2023-04-21T10:49:25;64823.78;;;22.96;52.72
7832;BME280;3961;42.058;25.586;2023-04-21T10:57:07;64831.56;;;22.98;50.22
7832;BME280;3961;42.058;25.586;2023-04-21T10:59:33;64808.72;;;22.78;53.48
7832;BME280;3961;42.058;25.586;2023-04-21T11:04:54;64879.97;;;23.44;53.50
7832;BME280;3961;42.058;25.586;2023-04-21T11:07:23;64844.28;;;23.13;49.90
7832;BME280;3961;42.058;25.586;2023-04-21T11:10:00;64811.06;;;22.80;51.65
7832;BME280;3961;42.058;25.586;2023-04-21T11:12:27;64827.66;;;22.97;50.51
7832;BME280;3961;42.058;25.586;2023-04-21T11:14:54;64741.66;;;22.22;52.36
7832;BME280;3961;42.058;25.586;2023-04-21T11:17:20;64644.38;;;21.35;57.94
7832;BME280;3961;42.058;25.586;2023-04-21T11:19:54;64611.50;;;21.11;58.99
7832;BME280;3961;42.058;25.586;2023-04-21T11:22:24;64597.84;;;20.97;58.13
7832;BME280;3961;42.058;25.586;2023-04-21T11:24:53;64604.84;;;21.03;60.77
7832;BME280;3961;42.058;25.586;2023-04-21T11:27:20;64655.09;;;21.47;58.27
7832;BME280;3961;42.058;25.586;2023-04-21T11:29:47;64666.44;;;21.59;56.26
7832;BME280;3961;42.058;25.586;2023-04-21T11:32:13;64671.47;;;21.61;56.45
7832;BME280;3961;42.058;25.586;2023-04-21T11:34:40;64630.94;;;21.24;56.83
7832;BME280;3961;42.058;25.586;2023-04-21T11:37:07;64706.53;;;21.92;56.91
7832;BME280;3961;42.058;25.586;2023-04-21T11:39:33;64721.06;;;22.09;56.51
7832;BME280;3961;42.058;25.586;2023-04-21T11:41:58;64690.31;;;21.73;60.80
7832;BME280;3961;42.058;25.586;2023-04-21T11:44:38;64551.69;;;20.57;60.95
7832;BME280;3961;42.058;25.586;2023-04-21T11:47:30;64521.91;;;20.31;58.62
7832;BME280;3961;42.058;25.586;2023-04-21T11:49:59;64531.84;;;20.40;59.79
7832;BME280;3961;42.058;25.586;2023-04-21T11:52:33;64571.19;;;20.76;59.80
7832;BME280;3961;42.058;25.586;2023-04-21T11:55:14;64595.63;;;20.91;59.74
7832;BME280;3961;42.058;25.586;2023-04-21T11:57:42;64576.00;;;20.76;58.37
7832;BME280;3961;42.058;25.586;2023-04-21T12:00:09;64591.41;;;20.92;59.73
7832;BME280;3961;42.058;25.586;2023-04-21T12:02:38;64598.78;;;20.96;57.77
7832;BME280;3961;42.058;25.586;2023-04-21T12:05:09;64618.84;;;21.16;56.86
7832;BME280;3961;42.058;25.586;2023-04-21T12:07:45;64617.09;;;21.14;57.19
7832;BME280;3961;42.058;25.586;2023-04-21T12:10:19;64600.31;;;20.95;56.75
7832;BME280;3961;42.058;25.586;2023-04-21T12:12:45;64517.25;;;20.27;58.27
7832;BME280;3961;42.058;25.586;2023-04-21T12:15:16;64528.09;;;20.34;57.32
7832;BME280;3961;42.058;25.586;2023-04-21T12:17:44;64562.22;;;20.66;57.15
7832;BME280;3961;42.058;25.586;2023-04-21T12:20:11;64633.50;;;21.28;55.79
7832;BME280;3961;42.058;25.586;2023-04-21T12:22:37;64645.53;;;21.36;56.78
7832;BME280;3961;42.058;25.586;2023-04-21T12:25:03;64626.81;;;21.20;55.96
7832;BME280;3961;42.058;25.586;2023-04-21T12:27:29;64658.38;;;21.48;56.11
7832;BME280;3961;42.058;25.586;2023-04-21T12:29:55;64652.91;;;21.40;56.46
7832;BME280;3961;42.058;25.586;2023-04-21T12:32:20;64667.38;;;21.58;55.97
7832;BME280;3961;42.058;25.586;2023-04-21T12:34:46;64502.44;;;20.12;58.33
7832;BME280;3961;42.058;25.586;2023-04-21T12:37:12;64564.19;;;20.70;57.29
7832;BME280;3961;42.058;25.586;2023-04-21T12:39:37;64546.78;;;20.51;59.11
7832;BME280;3961;42.058;25.586;2023-04-21T12:42:03;64582.06;;;20.84;59.08
7832;BME280;3961;42.058;25.586;2023-04-21T12:44:28;64536.66;;;20.39;59.56
7832;BME280;3961;42.058;25.586;2023-04-21T12:46:54;64588.47;;;20.89;60.17
7832;BME280;3961;42.058;25.586;2023-04-21T12:49:21;64616.66;;;21.09;59.19
7832;BME280;3961;42.058;25.586;2023-04-21T12:51:48;64637.00;;;21.31;57.20
7832;BME280;3961;42.058;25.586;2023-04-21T12:54:13;64583.22;;;20.85;57.59
7832;BME280;3961;42.058;25.586;2023-04-21T12:56:40;64610.69;;;21.08;56.55
7832;BME280;3961;42.058;25.586;2023-04-21T12:59:07;64605.78;;;21.02;54.77
7832;BME280;3961;42.058;25.586;2023-04-21T13:01:34;64628.81;;;21.24;53.68
7832;BME280;3961;42.058;25.586;2023-04-21T13:03:59;64610.69;;;21.08;54.54
7832;BME280;3961;42.058;25.586;2023-04-21T13:06:26;64649.28;;;21.42;54.32
7832;BME280;3961;42.058;25.586;2023-04-21T13:08:52;64642.63;;;21.34;51.96
7832;BME280;3961;42.058;25.586;2023-04-21T13:11:17;64665.19;;;21.51;52.43
7832;BME280;3961;42.058;25.586;2023-04-21T13:13:43;64649.63;;;21.40;51.19
7832;BME280;3961;42.058;25.586;2023-04-21T13:16:08;64715.09;;;21.97;50.15
7832;BME280;3961;42.058;25.586;2023-04-21T13:18:34;64758.63;;;22.37;49.72
7832;BME280;3961;42.058;25.586;2023-04-21T13:21:01;64766.41;;;22.46;51.48
7832;BME280;3961;42.058;25.586;2023-04-21T13:23:27;64711.22;;;21.96;48.69
7832;BME280;3961;42.058;25.586;2023-04-21T13:25:52;64743.75;;;22.22;48.58